sensor_id;sensor_type;location;lat;lon;timestamp;temperature;humidity
78289;DHT22;67539;48.752;12.922;2023-04-30T00:00:35;10.40;99.90
78289;DHT22;67539;48.752;12.922;2023-04-30T00:03:03;10.40;99.90
78289;DHT22;67539;48.752;12.922;2023-04-30T00:05:32;10.40;99.90
78289;DHT22;67539;48.752;12.922;2023-04-30T00:08:00;10.40;99.90
78289;DHT22;67539;48.752;12.922;2023-04-30T00:10:30;10.40;99.90
78289;DHT22;67539;48.752;12.922;2023-04-30T00:12:58;10.50;99.90
78289;DHT22;67539;48.752;12.922;2023-04-30T00:15:26;10.50;99.90
78289;DHT22;67539;48.752;12.922;2023-04-30T00:17:54;10.50;99.90
78289;DHT22;67539;48.752;12.922;2023-04-30T00:20:23;10.50;99.90
78289;DHT22;67539;48.752;12.922;2023-04-30T00:22:51;10.50;99.90
78289;DHT22;67539;48.752;12.922;2023-04-30T00:25:19;10.50;99.90
78289;DHT22;67539;48.752;12.922;2023-04-30T00:27:52;10.60;99.90
78289;DHT22;67539;48.752;12.922;2023-04-30T00:30:20;10.60;99.90
78289;DHT22;67539;48.752;12.922;2023-04-30T00:32:48;10.60;99.90
78289;DHT22;67539;48.752;12.922;2023-04-30T00:35:16;10.70;99.90
78289;DHT22;67539;48.752;12.922;2023-04-30T00:37:45;10.70;99.90
78289;DHT22;67539;48.752;12.922;2023-04-30T00:40:14;10.70;99.90
78289;DHT22;67539;48.752;12.922;2023-04-30T00:42:42;10.70;99.90
78289;DHT22;67539;48.752;12.922;2023-04-30T00:45:12;10.70;99.90
78289;DHT22;67539;48.752;12.922;2023-04-30T00:47:40;10.70;99.90
78289;DHT22;67539;48.752;12.922;2023-04-30T00:50:09;10.70;99.90
78289;DHT22;67539;48.752;12.922;2023-04-30T00:52:42;10.70;99.90
78289;DHT22;67539;48.752;12.922;2023-04-30T00:55:11;10.80;99.90
78289;DHT22;67539;48.752;12.922;2023-04-30T00:57:39;10.80;99.90
78289;DHT22;67539;48.752;12.922;2023-04-30T01:00:09;10.80;99.90
78289;DHT22;67539;48.752;12.922;2023-04-30T01:02:39;10.80;99.90
78289;DHT22;67539;48.752;12.922;2023-04-30T01:05:08;10.80;99.90
78289;DHT22;67539;48.752;12.922;2023-04-30T01:07:37;10.80;99.90
78289;DHT22;67539;48.752;12.922;2023-04-30T01:10:12;10.80;99.90
78289;DHT22;67539;48.752;12.922;2023-04-30T01:12:45;10.80;99.90
78289;DHT22;67539;48.752;12.922;2023-04-30T01:15:21;10.80;99.90
78289;DHT22;67539;48.752;12.922;2023-04-30T01:17:55;10.80;99.90
78289;DHT22;67539;48.752;12.922;2023-04-30T01:20:27;10.80;99.90
78289;DHT22;67539;48.752;12.922;2023-04-30T01:23:05;10.80;99.90
78289;DHT22;67539;48.752;12.922;2023-04-30T01:25:55;10.90;99.90
78289;DHT22;67539;48.752;12.922;2023-04-30T01:28:29;10.90;99.90
78289;DHT22;67539;48.752;12.922;2023-04-30T01:30:59;10.90;99.90
78289;DHT22;67539;48.752;12.922;2023-04-30T01:33:27;10.90;99.90
78289;DHT22;67539;48.752;12.922;2023-04-30T01:36:15;10.90;99.90
78289;DHT22;67539;48.752;12.922;2023-04-30T01:39:01;10.90;99.90
78289;DHT22;67539;48.752;12.922;2023-04-30T01:41:35;10.90;99.90
78289;DHT22;67539;48.752;12.922;2023-04-30T01:44:23;10.90;99.90
78289;DHT22;67539;48.752;12.922;2023-04-30T01:47:01;11.00;99.90
78289;DHT22;67539;48.752;12.922;2023-04-30T01:49:39;10.90;99.90
78289;DHT22;67539;48.752;12.922;2023-04-30T01:52:17;10.90;99.90
78289;DHT22;67539;48.752;12.922;2023-04-30T01:54:51;10.80;99.90
78289;DHT22;67539;48.752;12.922;2023-04-30T01:57:32;10.80;99.90
78289;DHT22;67539;48.752;12.922;2023-04-30T02:00:04;10.80;99.90
78289;DHT22;67539;48.752;12.922;2023-04-30T02:02:39;10.80;99.90
78289;DHT22;67539;48.752;12.922;2023-04-30T02:05:07;10.80;99.90
78289;DHT22;67539;48.752;12.922;2023-04-30T02:07:39;10.70;99.90
78289;DHT22;67539;48.752;12.922;2023-04-30T02:10:09;10.70;99.90
78289;DHT22;67539;48.752;12.922;2023-04-30T02:12:38;10.70;99.90
78289;DHT22;67539;48.752;12.922;2023-04-30T02:15:09;10.60;99.90
78289;DHT22;67539;48.752;12.922;2023-04-30T02:17:39;10.50;99.90
78289;DHT22;67539;48.752;12.922;2023-04-30T02:20:08;10.50;99.90
78289;DHT22;67539;48.752;12.922;2023-04-30T02:22:37;10.40;99.90
78289;DHT22;67539;48.752;12.922;2023-04-30T02:25:06;10.40;99.90
78289;DHT22;67539;48.752;12.922;2023-04-30T02:27:34;10.40;99.90
78289;DHT22;67539;48.752;12.922;2023-04-30T02:30:04;10.40;99.90
78289;DHT22;67539;48.752;12.922;2023-04-30T02:32:33;10.30;99.90
78289;DHT22;67539;48.752;12.922;2023-04-30T02:35:02;10.30;99.90
78289;DHT22;67539;48.752;12.922;2023-04-30T02:37:31;10.30;99.90
78289;DHT22;67539;48.752;12.922;2023-04-30T02:39:59;10.30;99.90
78289;DHT22;67539;48.752;12.922;2023-04-30T02:42:27;10.40;99.90
78289;DHT22;67539;48.752;12.922;2023-04-30T02:44:55;10.40;99.90
78289;DHT22;67539;48.752;12.922;2023-04-30T02:47:23;10.40;99.90
78289;DHT22;67539;48.752;12.922;2023-04-30T02:49:53;10.40;99.90
78289;DHT22;67539;48.752;12.922;2023-04-30T02:52:22;10.40;99.90
78289;DHT22;67539;48.752;12.922;2023-04-30T02:54:50;10.40;99.90
78289;DHT22;67539;48.752;12.922;2023-04-30T02:57:18;10.40;99.90
78289;DHT22;67539;48.752;12.922;2023-04-30T02:59:47;10.50;99.90
78289;DHT22;67539;48.752;12.922;2023-04-30T03:02:15;10.50;99.90
78289;DHT22;67539;48.752;12.922;2023-04-30T03:04:47;10.50;99.90
78289;DHT22;67539;48.752;12.922;2023-04-30T03:07:17;10.50;99.90
78289;DHT22;67539;48.752;12.922;2023-04-30T03:09:46;10.50;99.90
78289;DHT22;67539;48.752;12.922;2023-04-30T03:12:14;10.50;99.90
78289;DHT22;67539;48.752;12.922;2023-04-30T03:14:42;10.50;99.90
78289;DHT22;67539;48.752;12.922;2023-04-30T03:17:10;10.50;99.90
78289;DHT22;67539;48.752;12.922;2023-04-30T03:19:39;10.60;99.90
78289;DHT22;67539;48.752;12.922;2023-04-30T03:22:07;10.50;99.90
78289;DHT22;67539;48.752;12.922;2023-04-30T03:24:36;10.60;99.90
78289;DHT22;67539;48.752;12.922;2023-04-30T03:27:05;10.60;99.90
78289;DHT22;67539;48.752;12.922;2023-04-30T03:29:33;10.50;99.90
78289;DHT22;67539;48.752;12.922;2023-04-30T03:32:01;10.50;99.90
78289;DHT22;67539;48.752;12.922;2023-04-30T03:34:29;10.50;99.90
78289;DHT22;67539;48.752;12.922;2023-04-30T03:36:59;10.50;99.90
78289;DHT22;67539;48.752;12.922;2023-04-30T03:39:29;10.50;99.90
78289;DHT22;67539;48.752;12.922;2023-04-30T03:41:59;10.50;99.90
78289;DHT22;67539;48.752;12.922;2023-04-30T03:44:29;10.50;99.90
78289;DHT22;67539;48.752;12.922;2023-04-30T03:46:57;10.50;99.90
78289;DHT22;67539;48.752;12.922;2023-04-30T03:49:25;10.50;99.90
78289;DHT22;67539;48.752;12.922;2023-04-30T03:51:54;10.50;99.90
78289;DHT22;67539;48.752;12.922;2023-04-30T03:54:22;10.50;99.90
78289;DHT22;67539;48.752;12.922;2023-04-30T03:56:50;10.50;99.90
78289;DHT22;67539;48.752;12.922;2023-04-30T03:59:20;10.50;99.90
78289;DHT22;67539;48.752;12.922;2023-04-30T04:01:48;10.40;99.90
78289;DHT22;67539;48.752;12.922;2023-04-30T04:04:17;10.40;99.90
78289;DHT22;67539;48.752;12.922;2023-04-30T04:06:45;10.50;99.90
78289;DHT22;67539;48.752;12.922;2023-04-30T04:09:14;10.50;99.90
78289;DHT22;67539;48.752;12.922;2023-04-30T04:11:42;10.50;99.90
78289;DHT22;67539;48.752;12.922;2023-04-30T04:14:11;10.50;99.90
78289;DHT22;67539;48.752;12.922;2023-04-30T04:16:42;10.40;99.90
78289;DHT22;67539;48.752;12.922;2023-04-30T04:19:10;10.50;99.90
78289;DHT22;67539;48.752;12.922;2023-04-30T04:21:39;10.50;99.90
78289;DHT22;67539;48.752;12.922;2023-04-30T04:24:13;10.50;99.90
78289;DHT22;67539;48.752;12.922;2023-04-30T04:26:41;10.50;99.90
78289;DHT22;67539;48.752;12.922;2023-04-30T04:29:13;10.50;99.90
78289;DHT22;67539;48.752;12.922;2023-04-30T04:31:43;10.50;99.90
78289;DHT22;67539;48.752;12.922;2023-04-30T04:34:13;10.50;99.90
78289;DHT22;67539;48.752;12.922;2023-04-30T04:36:41;10.50;99.90
78289;DHT22;67539;48.752;12.922;2023-04-30T04:39:09;10.50;99.90
78289;DHT22;67539;48.752;12.922;2023-04-30T04:41:39;10.50;99.90
78289;DHT22;67539;48.752;12.922;2023-04-30T04:44:08;10.50;99.90
78289;DHT22;67539;48.752;12.922;2023-04-30T04:46:36;10.50;99.90
78289;DHT22;67539;48.752;12.922;2023-04-30T04:49:10;10.50;99.90
78289;DHT22;67539;48.752;12.922;2023-04-30T04:51:38;10.50;99.90
78289;DHT22;67539;48.752;12.922;2023-04-30T04:54:07;10.50;99.90
78289;DHT22;67539;48.752;12.922;2023-04-30T04:56:35;10.50;99.90
78289;DHT22;67539;48.752;12.922;2023-04-30T04:59:03;10.50;99.90
78289;DHT22;67539;48.752;12.922;2023-04-30T05:01:31;10.50;99.90
78289;DHT22;67539;48.752;12.922;2023-04-30T05:04:00;10.60;99.90
78289;DHT22;67539;48.752;12.922;2023-04-30T05:06:29;10.50;99.90
78289;DHT22;67539;48.752;12.922;2023-04-30T05:08:58;10.50;99.90
78289;DHT22;67539;48.752;12.922;2023-04-30T05:11:27;10.50;99.90
78289;DHT22;67539;48.752;12.922;2023-04-30T05:13:55;10.50;99.90
78289;DHT22;67539;48.752;12.922;2023-04-30T05:16:24;10.50;99.90
78289;DHT22;67539;48.752;12.922;2023-04-30T05:18:52;10.50;99.90
78289;DHT22;67539;48.752;12.922;2023-04-30T05:21:21;10.50;99.90
78289;DHT22;67539;48.752;12.922;2023-04-30T05:23:53;10.60;99.90
78289;DHT22;67539;48.752;12.922;2023-04-30T05:26:22;10.60;99.90
78289;DHT22;67539;48.752;12.922;2023-04-30T05:28:51;10.70;99.90
78289;DHT22;67539;48.752;12.922;2023-04-30T05:31:19;10.80;99.90
78289;DHT22;67539;48.752;12.922;2023-04-30T05:33:48;10.90;99.90
78289;DHT22;67539;48.752;12.922;2023-04-30T05:36:16;10.90;99.90
78289;DHT22;67539;48.752;12.922;2023-04-30T05:38:44;11.00;99.90
78289;DHT22;67539;48.752;12.922;2023-04-30T05:41:13;11.10;99.90
78289;DHT22;67539;48.752;12.922;2023-04-30T05:43:42;11.20;99.90
78289;DHT22;67539;48.752;12.922;2023-04-30T05:46:10;11.30;99.90
78289;DHT22;67539;48.752;12.922;2023-04-30T05:48:38;11.40;99.90
78289;DHT22;67539;48.752;12.922;2023-04-30T05:51:07;11.50;99.90
78289;DHT22;67539;48.752;12.922;2023-04-30T05:53:36;11.60;99.90
78289;DHT22;67539;48.752;12.922;2023-04-30T05:56:05;11.70;99.90
78289;DHT22;67539;48.752;12.922;2023-04-30T05:58:36;11.80;99.90
78289;DHT22;67539;48.752;12.922;2023-04-30T06:01:04;11.90;99.90
78289;DHT22;67539;48.752;12.922;2023-04-30T06:03:33;12.00;99.90
78289;DHT22;67539;48.752;12.922;2023-04-30T06:06:02;12.10;99.90
78289;DHT22;67539;48.752;12.922;2023-04-30T06:08:30;12.10;99.90
78289;DHT22;67539;48.752;12.922;2023-04-30T06:10:58;12.20;99.90
78289;DHT22;67539;48.752;12.922;2023-04-30T06:13:26;12.30;99.90
78289;DHT22;67539;48.752;12.922;2023-04-30T06:15:56;12.40;99.90
78289;DHT22;67539;48.752;12.922;2023-04-30T06:18:24;12.50;99.90
78289;DHT22;67539;48.752;12.922;2023-04-30T06:20:52;12.60;99.90
78289;DHT22;67539;48.752;12.922;2023-04-30T06:23:21;12.70;99.90
78289;DHT22;67539;48.752;12.922;2023-04-30T06:25:50;12.80;99.90
78289;DHT22;67539;48.752;12.922;2023-04-30T06:28:18;12.90;99.90
78289;DHT22;67539;48.752;12.922;2023-04-30T06:30:47;13.00;99.90
78289;DHT22;67539;48.752;12.922;2023-04-30T06:33:16;13.10;99.90
78289;DHT22;67539;48.752;12.922;2023-04-30T06:35:45;13.20;99.90
78289;DHT22;67539;48.752;12.922;2023-04-30T06:38:13;13.30;99.90
78289;DHT22;67539;48.752;12.922;2023-04-30T06:40:42;13.30;99.90
78289;DHT22;67539;48.752;12.922;2023-04-30T06:43:10;13.40;99.90
78289;DHT22;67539;48.752;12.922;2023-04-30T06:45:38;13.50;99.70
78289;DHT22;67539;48.752;12.922;2023-04-30T06:48:06;13.60;99.80
78289;DHT22;67539;48.752;12.922;2023-04-30T06:50:36;13.60;99.50
78289;DHT22;67539;48.752;12.922;2023-04-30T06:53:10;13.70;99.20
78289;DHT22;67539;48.752;12.922;2023-04-30T06:55:40;13.80;98.50
78289;DHT22;67539;48.752;12.922;2023-04-30T06:58:08;13.80;97.60
78289;DHT22;67539;48.752;12.922;2023-04-30T07:00:36;13.90;97.30
78289;DHT22;67539;48.752;12.922;2023-04-30T07:03:04;14.00;97.80
78289;DHT22;67539;48.752;12.922;2023-04-30T07:05:33;14.00;98.10
78289;DHT22;67539;48.752;12.922;2023-04-30T07:08:03;14.10;98.20
78289;DHT22;67539;48.752;12.922;2023-04-30T07:10:32;14.20;98.10
78289;DHT22;67539;48.752;12.922;2023-04-30T07:13:01;14.30;98.00
78289;DHT22;67539;48.752;12.922;2023-04-30T07:15:30;14.40;97.40
78289;DHT22;67539;48.752;12.922;2023-04-30T07:17:58;14.50;95.90
78289;DHT22;67539;48.752;12.922;2023-04-30T07:20:26;14.50;96.10
78289;DHT22;67539;48.752;12.922;2023-04-30T07:22:55;14.40;96.20
78289;DHT22;67539;48.752;12.922;2023-04-30T07:25:24;14.50;95.50
78289;DHT22;67539;48.752;12.922;2023-04-30T07:27:54;14.50;95.70
78289;DHT22;67539;48.752;12.922;2023-04-30T07:30:22;14.50;94.80
78289;DHT22;67539;48.752;12.922;2023-04-30T07:32:51;14.60;95.10
78289;DHT22;67539;48.752;12.922;2023-04-30T07:35:19;14.70;95.30
78289;DHT22;67539;48.752;12.922;2023-04-30T07:37:47;14.70;93.10
78289;DHT22;67539;48.752;12.922;2023-04-30T07:40:16;14.80;93.90
78289;DHT22;67539;48.752;12.922;2023-04-30T07:43:02;14.90;94.30
78289;DHT22;67539;48.752;12.922;2023-04-30T07:45:31;15.10;94.00
78289;DHT22;67539;48.752;12.922;2023-04-30T07:48:00;15.10;93.40
78289;DHT22;67539;48.752;12.922;2023-04-30T07:50:29;15.30;93.80
78289;DHT22;67539;48.752;12.922;2023-04-30T07:53:00;15.30;91.10
78289;DHT22;67539;48.752;12.922;2023-04-30T07:55:29;15.20;91.30
78289;DHT22;67539;48.752;12.922;2023-04-30T07:57:57;15.20;92.30
78289;DHT22;67539;48.752;12.922;2023-04-30T08:00:29;15.30;91.50
78289;DHT22;67539;48.752;12.922;2023-04-30T08:02:58;15.30;92.00
78289;DHT22;67539;48.752;12.922;2023-04-30T08:05:27;15.50;92.30
78289;DHT22;67539;48.752;12.922;2023-04-30T08:07:55;15.60;91.50
78289;DHT22;67539;48.752;12.922;2023-04-30T08:10:24;15.70;92.20
78289;DHT22;67539;48.752;12.922;2023-04-30T08:12:53;15.80;92.10
78289;DHT22;67539;48.752;12.922;2023-04-30T08:15:21;15.80;90.70
78289;DHT22;67539;48.752;12.922;2023-04-30T08:17:51;15.90;90.60
78289;DHT22;67539;48.752;12.922;2023-04-30T08:20:20;15.80;90.10
78289;DHT22;67539;48.752;12.922;2023-04-30T08:22:49;15.80;89.50
78289;DHT22;67539;48.752;12.922;2023-04-30T08:25:18;15.90;90.40
78289;DHT22;67539;48.752;12.922;2023-04-30T08:27:46;16.00;89.90
78289;DHT22;67539;48.752;12.922;2023-04-30T08:30:14;16.10;86.70
78289;DHT22;67539;48.752;12.922;2023-04-30T08:32:43;16.00;88.10
78289;DHT22;67539;48.752;12.922;2023-04-30T08:35:13;16.10;86.80
78289;DHT22;67539;48.752;12.922;2023-04-30T08:37:42;16.20;86.90
78289;DHT22;67539;48.752;12.922;2023-04-30T08:40:11;16.30;86.40
78289;DHT22;67539;48.752;12.922;2023-04-30T08:42:45;16.40;86.70
78289;DHT22;67539;48.752;12.922;2023-04-30T08:45:14;16.50;87.00
78289;DHT22;67539;48.752;12.922;2023-04-30T08:47:43;16.60;83.80
78289;DHT22;67539;48.752;12.922;2023-04-30T08:50:13;16.60;83.20
78289;DHT22;67539;48.752;12.922;2023-04-30T08:52:41;16.70;85.20
78289;DHT22;67539;48.752;12.922;2023-04-30T08:55:10;16.80;84.80
78289;DHT22;67539;48.752;12.922;2023-04-30T08:57:39;16.70;84.60
78289;DHT22;67539;48.752;12.922;2023-04-30T09:00:08;16.60;83.40
78289;DHT22;67539;48.752;12.922;2023-04-30T09:02:39;16.60;84.10
78289;DHT22;67539;48.752;12.922;2023-04-30T09:05:11;16.50;84.00
78289;DHT22;67539;48.752;12.922;2023-04-30T09:07:42;16.40;83.20
78289;DHT22;67539;48.752;12.922;2023-04-30T09:10:31;16.30;84.10
78289;DHT22;67539;48.752;12.922;2023-04-30T09:13:00;16.40;84.60
78289;DHT22;67539;48.752;12.922;2023-04-30T09:15:30;16.50;84.10
78289;DHT22;67539;48.752;12.922;2023-04-30T09:18:08;16.40;84.20
78289;DHT22;67539;48.752;12.922;2023-04-30T09:20:36;16.50;82.80
78289;DHT22;67539;48.752;12.922;2023-04-30T09:23:09;16.40;83.70
78289;DHT22;67539;48.752;12.922;2023-04-30T09:25:38;16.50;84.00
78289;DHT22;67539;48.752;12.922;2023-04-30T09:28:09;16.60;83.40
78289;DHT22;67539;48.752;12.922;2023-04-30T09:30:38;16.60;83.00
78289;DHT22;67539;48.752;12.922;2023-04-30T09:33:08;16.70;84.60
78289;DHT22;67539;48.752;12.922;2023-04-30T09:35:39;16.80;82.60
78289;DHT22;67539;48.752;12.922;2023-04-30T09:38:25;16.90;80.90
78289;DHT22;67539;48.752;12.922;2023-04-30T09:40:54;17.10;80.60
78289;DHT22;67539;48.752;12.922;2023-04-30T09:43:23;17.10;80.50
78289;DHT22;67539;48.752;12.922;2023-04-30T09:45:51;17.20;80.40
78289;DHT22;67539;48.752;12.922;2023-04-30T09:48:21;17.20;80.70
78289;DHT22;67539;48.752;12.922;2023-04-30T09:50:50;17.30;82.10
78289;DHT22;67539;48.752;12.922;2023-04-30T09:53:20;17.30;80.50
78289;DHT22;67539;48.752;12.922;2023-04-30T09:55:50;17.40;80.10
78289;DHT22;67539;48.752;12.922;2023-04-30T09:58:19;17.40;74.10
78289;DHT22;67539;48.752;12.922;2023-04-30T10:00:49;17.40;75.10
78289;DHT22;67539;48.752;12.922;2023-04-30T10:03:20;17.40;76.30
78289;DHT22;67539;48.752;12.922;2023-04-30T10:05:50;17.40;76.10
78289;DHT22;67539;48.752;12.922;2023-04-30T10:08:26;17.50;77.10
78289;DHT22;67539;48.752;12.922;2023-04-30T10:10:58;17.50;74.10
78289;DHT22;67539;48.752;12.922;2023-04-30T10:13:30;17.60;74.80
78289;DHT22;67539;48.752;12.922;2023-04-30T10:16:07;17.60;76.70
78289;DHT22;67539;48.752;12.922;2023-04-30T10:18:38;17.80;78.50
78289;DHT22;67539;48.752;12.922;2023-04-30T10:21:10;18.00;77.10
78289;DHT22;67539;48.752;12.922;2023-04-30T10:23:41;18.10;77.10
78289;DHT22;67539;48.752;12.922;2023-04-30T10:26:11;18.10;75.50
78289;DHT22;67539;48.752;12.922;2023-04-30T10:28:40;18.30;75.60
78289;DHT22;67539;48.752;12.922;2023-04-30T10:31:09;18.40;76.20
78289;DHT22;67539;48.752;12.922;2023-04-30T10:33:45;18.50;76.70
78289;DHT22;67539;48.752;12.922;2023-04-30T10:36:23;18.60;75.00
78289;DHT22;67539;48.752;12.922;2023-04-30T10:38:55;18.70;75.40
78289;DHT22;67539;48.752;12.922;2023-04-30T10:41:25;18.80;74.40
78289;DHT22;67539;48.752;12.922;2023-04-30T10:43:57;18.90;72.60
78289;DHT22;67539;48.752;12.922;2023-04-30T10:46:29;19.00;72.70
78289;DHT22;67539;48.752;12.922;2023-04-30T10:48:57;19.10;73.10
78289;DHT22;67539;48.752;12.922;2023-04-30T10:51:43;19.10;72.80
78289;DHT22;67539;48.752;12.922;2023-04-30T10:54:16;19.10;71.50
78289;DHT22;67539;48.752;12.922;2023-04-30T10:56:47;19.20;70.80
78289;DHT22;67539;48.752;12.922;2023-04-30T10:59:18;19.10;70.00
78289;DHT22;67539;48.752;12.922;2023-04-30T11:01:57;19.10;67.50
78289;DHT22;67539;48.752;12.922;2023-04-30T11:04:26;19.10;68.50
78289;DHT22;67539;48.752;12.922;2023-04-30T11:09:41;19.10;68.80
78289;DHT22;67539;48.752;12.922;2023-04-30T11:12:12;19.30;71.40
78289;DHT22;67539;48.752;12.922;2023-04-30T11:14:43;19.50;72.10
78289;DHT22;67539;48.752;12.922;2023-04-30T11:17:12;19.70;71.00
78289;DHT22;67539;48.752;12.922;2023-04-30T11:19:45;20.00;67.40
78289;DHT22;67539;48.752;12.922;2023-04-30T11:22:16;20.10;64.50
78289;DHT22;67539;48.752;12.922;2023-04-30T11:24:53;20.20;63.90
78289;DHT22;67539;48.752;12.922;2023-04-30T11:27:23;20.10;62.30
78289;DHT22;67539;48.752;12.922;2023-04-30T11:29:52;20.10;64.00
78289;DHT22;67539;48.752;12.922;2023-04-30T11:32:23;20.10;63.90
78289;DHT22;67539;48.752;12.922;2023-04-30T11:34:53;20.20;63.80
78289;DHT22;67539;48.752;12.922;2023-04-30T11:37:24;20.00;63.00
78289;DHT22;67539;48.752;12.922;2023-04-30T11:39:59;20.10;64.40
78289;DHT22;67539;48.752;12.922;2023-04-30T11:42:28;20.10;63.20
78289;DHT22;67539;48.752;12.922;2023-04-30T11:45:06;20.30;62.00
78289;DHT22;67539;48.752;12.922;2023-04-30T11:47:40;20.60;62.90
78289;DHT22;67539;48.752;12.922;2023-04-30T11:50:09;20.80;62.80
78289;DHT22;67539;48.752;12.922;2023-04-30T11:52:39;20.90;59.70
78289;DHT22;67539;48.752;12.922;2023-04-30T11:55:13;20.90;59.70
78289;DHT22;67539;48.752;12.922;2023-04-30T11:57:44;21.00;62.20
78289;DHT22;67539;48.752;12.922;2023-04-30T12:00:14;21.00;60.60
78289;DHT22;67539;48.752;12.922;2023-04-30T12:02:44;20.80;61.40
78289;DHT22;67539;48.752;12.922;2023-04-30T12:05:14;20.70;61.40
78289;DHT22;67539;48.752;12.922;2023-04-30T12:07:45;20.80;59.60
78289;DHT22;67539;48.752;12.922;2023-04-30T12:10:15;20.80;60.40
78289;DHT22;67539;48.752;12.922;2023-04-30T12:12:43;20.80;58.20
78289;DHT22;67539;48.752;12.922;2023-04-30T12:15:14;20.80;59.10
78289;DHT22;67539;48.752;12.922;2023-04-30T12:17:43;20.50;57.90
78289;DHT22;67539;48.752;12.922;2023-04-30T12:20:13;20.30;59.40
78289;DHT22;67539;48.752;12.922;2023-04-30T12:22:43;20.30;59.60
78289;DHT22;67539;48.752;12.922;2023-04-30T12:25:13;20.30;60.00
78289;DHT22;67539;48.752;12.922;2023-04-30T12:27:45;20.20;57.80
78289;DHT22;67539;48.752;12.922;2023-04-30T12:30:14;20.10;58.30
78289;DHT22;67539;48.752;12.922;2023-04-30T12:32:49;19.90;57.50
78289;DHT22;67539;48.752;12.922;2023-04-30T12:35:19;19.70;57.40
78289;DHT22;67539;48.752;12.922;2023-04-30T12:37:49;19.60;57.60
78289;DHT22;67539;48.752;12.922;2023-04-30T12:40:19;19.40;55.30
78289;DHT22;67539;48.752;12.922;2023-04-30T12:42:49;19.40;58.10
78289;DHT22;67539;48.752;12.922;2023-04-30T12:45:42;19.30;58.50
78289;DHT22;67539;48.752;12.922;2023-04-30T12:48:11;19.20;59.00
78289;DHT22;67539;48.752;12.922;2023-04-30T12:50:40;19.30;63.40
78289;DHT22;67539;48.752;12.922;2023-04-30T12:53:08;19.60;63.60
78289;DHT22;67539;48.752;12.922;2023-04-30T12:55:37;19.80;61.70
78289;DHT22;67539;48.752;12.922;2023-04-30T12:58:08;20.00;60.40
78289;DHT22;67539;48.752;12.922;2023-04-30T13:00:47;20.10;59.20
78289;DHT22;67539;48.752;12.922;2023-04-30T13:03:16;20.10;58.50
78289;DHT22;67539;48.752;12.922;2023-04-30T13:05:46;20.10;59.20
78289;DHT22;67539;48.752;12.922;2023-04-30T13:08:15;20.20;59.10
78289;DHT22;67539;48.752;12.922;2023-04-30T13:10:45;20.40;58.90
78289;DHT22;67539;48.752;12.922;2023-04-30T13:13:16;20.60;58.60
78289;DHT22;67539;48.752;12.922;2023-04-30T13:15:46;20.50;59.10
78289;DHT22;67539;48.752;12.922;2023-04-30T13:18:14;20.70;60.30
78289;DHT22;67539;48.752;12.922;2023-04-30T13:20:43;20.90;60.20
78289;DHT22;67539;48.752;12.922;2023-04-30T13:23:12;21.10;60.40
78289;DHT22;67539;48.752;12.922;2023-04-30T13:25:40;21.20;59.90
78289;DHT22;67539;48.752;12.922;2023-04-30T13:28:09;21.10;58.00
78289;DHT22;67539;48.752;12.922;2023-04-30T13:30:39;21.10;57.60
78289;DHT22;67539;48.752;12.922;2023-04-30T13:33:07;21.20;55.10
78289;DHT22;67539;48.752;12.922;2023-04-30T13:35:35;21.30;53.90
78289;DHT22;67539;48.752;12.922;2023-04-30T13:38:05;21.30;52.80
78289;DHT22;67539;48.752;12.922;2023-04-30T13:40:33;21.50;52.70
78289;DHT22;67539;48.752;12.922;2023-04-30T13:43:01;22.30;54.30
78289;DHT22;67539;48.752;12.922;2023-04-30T13:45:30;23.70;53.30
78289;DHT22;67539;48.752;12.922;2023-04-30T13:47:59;25.10;52.70
78289;DHT22;67539;48.752;12.922;2023-04-30T13:50:28;26.40;52.00
78289;DHT22;67539;48.752;12.922;2023-04-30T13:52:56;27.50;47.60
78289;DHT22;67539;48.752;12.922;2023-04-30T13:55:25;28.00;46.10
78289;DHT22;67539;48.752;12.922;2023-04-30T13:57:54;28.70;45.10
78289;DHT22;67539;48.752;12.922;2023-04-30T14:00:24;29.50;43.60
78289;DHT22;67539;48.752;12.922;2023-04-30T14:02:52;30.50;41.30
78289;DHT22;67539;48.752;12.922;2023-04-30T14:05:23;30.90;40.40
78289;DHT22;67539;48.752;12.922;2023-04-30T14:07:52;31.10;37.30
78289;DHT22;67539;48.752;12.922;2023-04-30T14:10:20;31.10;37.10
78289;DHT22;67539;48.752;12.922;2023-04-30T14:12:48;31.20;37.90
78289;DHT22;67539;48.752;12.922;2023-04-30T14:15:17;31.50;37.80
78289;DHT22;67539;48.752;12.922;2023-04-30T14:17:45;31.90;37.80
78289;DHT22;67539;48.752;12.922;2023-04-30T14:20:14;32.50;37.10
78289;DHT22;67539;48.752;12.922;2023-04-30T14:22:43;33.40;36.60
78289;DHT22;67539;48.752;12.922;2023-04-30T14:25:12;34.00;35.80
78289;DHT22;67539;48.752;12.922;2023-04-30T14:27:40;34.20;34.80
78289;DHT22;67539;48.752;12.922;2023-04-30T14:30:09;34.50;35.30
78289;DHT22;67539;48.752;12.922;2023-04-30T14:32:37;34.40;34.10
78289;DHT22;67539;48.752;12.922;2023-04-30T14:35:07;34.40;35.60
78289;DHT22;67539;48.752;12.922;2023-04-30T14:37:37;33.90;34.80
78289;DHT22;67539;48.752;12.922;2023-04-30T14:40:07;33.20;34.00
78289;DHT22;67539;48.752;12.922;2023-04-30T14:42:36;33.30;34.70
78289;DHT22;67539;48.752;12.922;2023-04-30T14:45:05;34.00;33.90
78289;DHT22;67539;48.752;12.922;2023-04-30T14:47:35;34.30;34.40
78289;DHT22;67539;48.752;12.922;2023-04-30T14:50:03;34.50;34.80
78289;DHT22;67539;48.752;12.922;2023-04-30T14:52:32;34.30;34.80
78289;DHT22;67539;48.752;12.922;2023-04-30T14:55:00;34.60;34.00
78289;DHT22;67539;48.752;12.922;2023-04-30T14:57:31;34.80;33.80
78289;DHT22;67539;48.752;12.922;2023-04-30T15:00:00;34.50;32.90
78289;DHT22;67539;48.752;12.922;2023-04-30T15:02:28;34.10;33.30
78289;DHT22;67539;48.752;12.922;2023-04-30T15:04:56;33.20;32.70
78289;DHT22;67539;48.752;12.922;2023-04-30T15:07:25;32.10;33.60
78289;DHT22;67539;48.752;12.922;2023-04-30T15:09:54;30.80;34.50
78289;DHT22;67539;48.752;12.922;2023-04-30T15:12:22;29.90;35.20
78289;DHT22;67539;48.752;12.922;2023-04-30T15:14:52;29.20;35.80
78289;DHT22;67539;48.752;12.922;2023-04-30T15:17:20;28.80;36.40
78289;DHT22;67539;48.752;12.922;2023-04-30T15:19:49;28.70;36.80
78289;DHT22;67539;48.752;12.922;2023-04-30T15:22:17;28.30;37.10
78289;DHT22;67539;48.752;12.922;2023-04-30T15:24:45;28.10;37.70
78289;DHT22;67539;48.752;12.922;2023-04-30T15:27:13;27.70;38.40
78289;DHT22;67539;48.752;12.922;2023-04-30T15:29:41;28.10;39.10
78289;DHT22;67539;48.752;12.922;2023-04-30T15:32:11;28.80;38.00
78289;DHT22;67539;48.752;12.922;2023-04-30T15:34:39;29.60;36.90